Farmhaven, Mississippi
Current Conditions -  °F | °C
As of 11:54 PM on Wednesday 26 Nov 2014 (Local Time) from KJAN Reporting Station
Clear Clear  
Wind Chill: 51°   Ceiling: Unl
Heat Index: 51°   Visibility: 10mi
Dew Point: 29°   Wind: 7mph
Humidity: 43%   Direction: 300°WNW
Pressure: 30.25"   Gusts: NA
Location:  32.6346°N, 89.9822°W
Report Text: KJAN 270554Z AUTO 30006KT 10SM CLR 11/M02 A3025 RMK AO2 SLP243 T01061017 10161 20089 401941028 53019
Loading
Personal Weather Stations






























Interactive Weather Map New forecast layout! Learn more

10-Day Weather Forecast

Advertisements
Track Severe Weather on mobile